Time;durP1;ratioP1;P1;durP2;ratioP2;P2;SDS_P1;SDS_P2;PMS_P1;PMS_P2;Temp;Humidity;BMP_temperature;BMP_pressure;BME280_temperature;BME280_humidity;BME280_pressure;Samples;Min_cycle;Max_cycle;Signal;HPM_P1;HPM_P2
2023/10/06 00:00:53;;;;;;;1.35;1.27;;;7.60;1.00;;;;;;5064561;28;20049;-76
2023/10/06 00:03:20;;;;;;;0.25;0.25;;;7.40;1.00;;;;;;5068202;28;20358;-76
2023/10/06 00:05:48;;;;;;;0.52;0.52;;;7.30;1.00;;;;;;5070112;28;20017;-76
2023/10/06 00:08:17;;;;;;;0.30;0.30;;;7.20;1.00;;;;;;5065893;28;20051;-76
2023/10/06 00:10:51;;;;;;;1.25;1.05;;;7.10;1.00;;;;;;5067057;28;20028;-76
2023/10/06 00:13:28;;;;;;;1.10;0.50;;;7.10;1.00;;;;;;5068443;28;20043;-75
2023/10/06 00:15:56;;;;;;;0.85;0.57;;;7.20;1.00;;;;;;5065549;28;20032;-76
2023/10/06 00:18:23;;;;;;;0.60;0.60;;;7.10;1.00;;;;;;5081501;28;20044;-76
2023/10/06 00:20:56;;;;;;;0.65;0.65;;;7.10;1.00;;;;;;5068042;28;20397;-77
2023/10/06 00:23:23;;;;;;;0.52;0.52;;;7.10;1.00;;;;;;5067485;28;20036;-76
2023/10/06 00:25:54;;;;;;;0.63;0.57;;;7.00;1.00;;;;;;5067398;28;20392;-76
2023/10/06 00:28:28;;;;;;;0.20;0.20;;;6.90;1.00;;;;;;5064468;28;20036;-76
2023/10/06 00:30:56;;;;;;;0.28;0.20;;;6.80;1.00;;;;;;5065117;28;20036;-76
2023/10/06 00:33:26;;;;;;;1.05;0.95;;;6.70;1.00;;;;;;5075828;28;20351;-76
2023/10/06 00:35:52;;;;;;;1.02;1.02;;;6.70;1.00;;;;;;5064624;28;20504;-76
2023/10/06 00:38:18;;;;;;;0.20;0.20;;;6.80;14.30;;;;;;5067386;28;20046;-76
2023/10/06 00:40:52;;;;;;;0.25;0.25;;;7.00;22.70;;;;;;5068052;28;20045;-76
2023/10/06 00:43:43;;;;;;;0.50;0.47;;;7.10;1.00;;;;;;5066751;28;20035;-76
2023/10/06 00:46:18;;;;;;;0.73;0.70;;;7.10;1.00;;;;;;5065071;28;20073;-76
2023/10/06 00:48:53;;;;;;;0.73;0.73;;;7.00;1.00;;;;;;5067694;28;20044;-76
2023/10/06 00:51:28;;;;;;;0.50;0.50;;;7.00;1.00;;;;;;5064194;28;20043;-76
2023/10/06 00:53:56;;;;;;;3.97;0.88;;;7.00;1.00;;;;;;5068210;28;20055;-76
2023/10/06 00:56:23;;;;;;;0.90;0.65;;;6.90;1.00;;;;;;5062238;28;20397;-76
2023/10/06 00:58:50;;;;;;;3.28;1.85;;;6.80;1.00;;;;;;5067679;28;20044;-77
2023/10/06 01:01:21;;;;;;;0.25;0.25;;;6.70;1.00;;;;;;5065258;28;20461;-76
2023/10/06 01:04:08;;;;;;;;;;;6.60;1.00;;;;;;5081602;28;20044;-77
2023/10/06 01:06:37;;;;;;;0.55;0.55;;;6.80;1.00;;;;;;5068022;28;19916;-76
2023/10/06 01:11:51;;;;;;;1.02;0.73;;;7.00;1.00;;;;;;5065345;28;20051;-76
2023/10/06 01:14:21;;;;;;;0.10;0.10;;;7.00;1.00;;;;;;5063803;28;20032;-81
2023/10/06 01:16:51;;;;;;;0.20;0.20;;;7.00;1.00;;;;;;5065995;28;20028;-77
2023/10/06 01:21:53;;;;;;;0.20;0.20;;;7.00;1.00;;;;;;5070516;28;20545;-76
2023/10/06 01:24:27;;;;;;;0.10;0.10;;;7.00;1.00;;;;;;5067567;28;20390;-76
2023/10/06 01:26:58;;;;;;;0.40;0.40;;;6.90;1.00;;;;;;5065089;28;20405;-75
2023/10/06 01:29:29;;;;;;;0.45;0.45;;;6.80;1.00;;;;;;5064410;28;20041;-76
2023/10/06 01:31:56;;;;;;;0.70;0.70;;;6.80;1.00;;;;;;5060076;28;20036;-76
2023/10/06 01:34:24;;;;;;;0.50;0.50;;;6.90;1.00;;;;;;5065289;28;20052;-76
2023/10/06 01:36:54;;;;;;;0.10;0.10;;;6.90;1.00;;;;;;5068734;28;20044;-76
2023/10/06 01:39:25;;;;;;;0.30;0.30;;;6.80;1.00;;;;;;5064602;28;20035;-76
2023/10/06 01:41:52;;;;;;;0.10;0.10;;;6.70;1.00;;;;;;5067077;28;20401;-76
2023/10/06 01:44:18;;;;;;;0.68;0.60;;;6.60;1.00;;;;;;5057578;28;20029;-80
2023/10/06 01:47:04;;;;;;;0.43;0.43;;;6.60;1.00;;;;;;5072175;28;20029;-76
2023/10/06 01:49:33;;;;;;;0.98;0.85;;;6.70;1.00;;;;;;5066049;28;20032;-75
2023/10/06 01:52:07;;;;;;;1.63;1.27;;;6.70;1.00;;;;;;5069653;28;20041;-83
2023/10/06 01:54:37;;;;;;;0.30;0.30;;;6.60;1.00;;;;;;5064582;28;20662;-76
2023/10/06 01:57:06;;;;;;;1.88;1.08;;;6.50;1.00;;;;;;5072711;28;20029;-76
2023/10/06 01:59:33;;;;;;;3.72;0.60;;;6.50;1.00;;;;;;5071905;28;20104;-76
2023/10/06 02:02:02;;;;;;;2.22;0.77;;;6.60;1.00;;;;;;5084919;28;20041;-76
2023/10/06 02:04:38;;;;;;;0.75;0.75;;;6.60;1.00;;;;;;5072581;28;20032;-76
2023/10/06 02:07:05;;;;;;;0.95;0.95;;;6.70;1.00;;;;;;5086793;28;20040;-78
2023/10/06 02:09:32;;;;;;;0.90;0.85;;;6.60;1.00;;;;;;5074223;28;20032;-76
2023/10/06 02:11:58;;;;;;;0.30;0.30;;;6.50;1.00;;;;;;5074466;28;20032;-76
2023/10/06 02:14:24;;;;;;;0.38;0.38;;;6.50;1.00;;;;;;5070582;28;20028;-76
2023/10/06 02:16:55;;;;;;;0.10;0.10;;;6.40;1.00;;;;;;5068175;28;20033;-75
2023/10/06 02:19:22;;;;;;;1.33;0.83;;;6.30;1.00;;;;;;5084808;28;20040;-76
2023/10/06 02:21:49;;;;;;;1.55;1.00;;;6.30;1.00;;;;;;5067801;28;20647;-76
2023/10/06 02:24:18;;;;;;;3.08;1.33;;;6.20;1.00;;;;;;5070277;28;20032;-81
2023/10/06 02:26:50;;;;;;;1.55;0.85;;;6.10;1.00;;;;;;5072775;28;20036;-75
2023/10/06 02:29:22;;;;;;;1.80;1.05;;;6.10;1.00;;;;;;5072136;28;20033;-76
2023/10/06 02:31:52;;;;;;;2.15;1.02;;;6.00;1.00;;;;;;5067718;28;20040;-76
2023/10/06 02:34:38;;;;;;;0.30;0.30;;;6.20;1.00;;;;;;5063733;28;20047;-76
2023/10/06 02:37:06;;;;;;;0.30;0.28;;;6.20;1.00;;;;;;5065435;28;20028;-76
2023/10/06 02:39:37;;;;;;;0.38;0.38;;;6.10;1.00;;;;;;5070948;28;20035;-76
2023/10/06 02:42:09;;;;;;;0.17;0.17;;;6.10;1.00;;;;;;5071876;28;20037;-76
2023/10/06 02:44:40;;;;;;;0.73;0.57;;;6.00;1.00;;;;;;5069376;28;20044;-77
2023/10/06 02:47:11;;;;;;;0.50;0.40;;;6.00;1.00;;;;;;5077205;28;20450;-75
2023/10/06 02:49:40;;;;;;;0.20;0.20;;;6.20;1.00;;;;;;5068490;28;20458;-76
2023/10/06 02:52:45;;;;;;;0.30;0.30;;;6.20;1.00;;;;;;5069545;28;20123;-76
2023/10/06 02:57:35;;;;;;;0.25;0.25;;;6.20;1.00;;;;;;5070821;28;20449;-76
2023/10/06 03:00:30;;;;;;;0.52;0.52;;;6.30;1.00;;;;;;5065387;28;20422;-76
2023/10/06 03:03:03;;;;;;;2.28;1.23;;;6.40;1.00;;;;;;5068562;28;20044;-76
2023/10/06 03:05:33;;;;;;;0.80;0.68;;;6.40;1.00;;;;;;5081992;28;20044;-75
2023/10/06 03:08:01;;;;;;;0.63;0.50;;;6.30;1.00;;;;;;5071412;28;20387;-76
2023/10/06 03:10:30;;;;;;;0.43;0.43;;;6.20;1.00;;;;;;5068902;28;20425;-77
2023/10/06 03:12:57;;;;;;;2.22;1.38;;;6.10;1.00;;;;;;5070680;28;20041;-76
2023/10/06 03:15:28;;;;;;;3.08;0.45;;;6.00;1.00;;;;;;5085984;28;20374;-75
2023/10/06 03:17:55;;;;;;;0.65;0.57;;;6.10;1.00;;;;;;5084887;28;20048;-76
2023/10/06 03:20:46;;;;;;;0.65;0.65;;;6.20;1.00;;;;;;5068481;28;20032;-76
2023/10/06 03:26:03;;;;;;;0.90;0.65;;;6.30;1.00;;;;;;5069138;28;19908;-76
2023/10/06 03:28:36;;;;;;;0.68;0.65;;;6.20;1.00;;;;;;5071389;28;20040;-75
2023/10/06 03:31:28;;;;;;;0.73;0.73;;;6.10;1.00;;;;;;5078189;28;20430;-75
2023/10/06 03:33:55;;;;;;;1.17;1.05;;;6.00;1.00;;;;;;5068483;28;20367;-75
2023/10/06 03:37:15;;;;;;;0.55;0.55;;;5.90;1.00;;;;;;5080810;28;20047;-76
2023/10/06 03:39:31;;;;;;;2.63;0.73;;;5.80;1.00;;;;;;5063965;28;20044;-75
2023/10/06 03:42:01;;;;;;;0.25;0.20;;;5.70;1.00;;;;;;5080616;28;20056;-75
2023/10/06 03:44:30;;;;;;;0.82;0.35;;;5.70;1.00;;;;;;5067554;28;20032;-75
2023/10/06 03:47:00;;;;;;;0.30;0.30;;;5.60;1.00;;;;;;5082538;28;20056;-76
2023/10/06 03:49:27;;;;;;;0.63;0.60;;;5.60;1.00;;;;;;5084846;28;20454;-76
2023/10/06 03:51:56;;;;;;;0.13;0.13;;;5.60;1.00;;;;;;5069512;28;20040;-76
2023/10/06 03:54:23;;;;;;;2.15;0.98;;;5.60;1.00;;;;;;5062855;28;20060;-76
2023/10/06 03:56:50;;;;;;;0.28;0.28;;;5.60;1.00;;;;;;5080763;28;20033;-76
2023/10/06 03:59:16;;;;;;;1.38;0.63;;;5.60;1.00;;;;;;5065537;28;20411;-75
2023/10/06 04:01:46;;;;;;;0.50;0.50;;;5.70;1.00;;;;;;5067912;28;20051;-75
2023/10/06 04:04:15;;;;;;;0.57;0.57;;;5.80;1.00;;;;;;5059850;28;20033;-76
2023/10/06 04:06:41;;;;;;;1.45;0.95;;;5.90;1.00;;;;;;5070686;28;20043;-76
2023/10/06 04:09:09;;;;;;;2.30;0.88;;;6.00;1.00;;;;;;5066025;28;20029;-78
2023/10/06 04:11:35;;;;;;;0.20;0.20;;;6.00;1.00;;;;;;5067032;28;20043;-76
2023/10/06 04:14:02;;;;;;;0.98;0.73;;;6.10;1.00;;;;;;5059875;28;20032;-75
2023/10/06 04:16:30;;;;;;;1.17;0.65;;;6.00;1.00;;;;;;5061493;28;20032;-77
2023/10/06 04:18:56;;;;;;;0.10;0.10;;;5.90;1.00;;;;;;5068040;28;20055;-75
2023/10/06 04:21:24;;;;;;;0.57;0.57;;;5.70;1.00;;;;;;5067531;28;20501;-75
2023/10/06 04:23:50;;;;;;;0.40;0.40;;;5.60;1.00;;;;;;5066018;28;20028;-76
2023/10/06 04:26:16;;;;;;;1.55;0.77;;;5.60;1.00;;;;;;5072258;28;20040;-76
2023/10/06 04:28:47;;;;;;;1.65;1.55;;;5.50;1.00;;;;;;5061038;28;20036;-76
2023/10/06 04:31:15;;;;;;;0.98;0.93;;;5.40;1.00;;;;;;5061264;28;20049;-76
2023/10/06 04:33:41;;;;;;;1.20;1.10;;;5.50;1.00;;;;;;5064943;28;20032;-76
2023/10/06 04:36:07;;;;;;;0.75;0.73;;;5.60;1.00;;;;;;5062106;28;20033;-76
2023/10/06 04:38:38;;;;;;;1.65;1.10;;;5.70;1.00;;;;;;5064824;28;20033;-75
2023/10/06 04:41:07;;;;;;;0.20;0.20;;;5.60;1.00;;;;;;5071087;28;20028;-75
2023/10/06 04:43:37;;;;;;;0.57;0.35;;;5.50;1.00;;;;;;5065185;28;20032;-75
2023/10/06 04:46:06;;;;;;;0.80;0.60;;;5.40;1.00;;;;;;5072959;28;20037;-77
2023/10/06 04:48:35;;;;;;;0.47;0.47;;;5.40;1.00;;;;;;5077921;28;20092;-75
2023/10/06 04:51:06;;;;;;;1.67;1.42;;;5.50;1.00;;;;;;5069573;28;20037;-75
2023/10/06 04:53:36;;;;;;;0.57;0.52;;;5.60;1.00;;;;;;5071701;28;20033;-76
2023/10/06 04:56:03;;;;;;;0.63;0.63;;;5.60;1.00;;;;;;5070127;28;20103;-75
2023/10/06 04:58:29;;;;;;;1.10;0.82;;;5.60;1.00;;;;;;5053310;28;20744;-75
2023/10/06 05:00:59;;;;;;;5.75;1.80;;;5.70;1.00;;;;;;5066018;28;20045;-75
2023/10/06 05:03:27;;;;;;;1.08;1.08;;;5.60;1.00;;;;;;5067362;28;20033;-75
2023/10/06 05:05:55;;;;;;;0.88;0.85;;;5.50;1.00;;;;;;5070567;28;20029;-75
2023/10/06 05:08:24;;;;;;;1.73;1.63;;;5.40;1.00;;;;;;5064976;28;20029;-75
2023/10/06 05:10:52;;;;;;;2.10;1.95;;;5.30;1.00;;;;;;5068573;28;20047;-75
2023/10/06 05:13:19;;;;;;;0.80;0.73;;;5.30;1.00;;;;;;5066675;28;20026;-74
2023/10/06 05:15:45;;;;;;;0.20;0.20;;;5.20;1.00;;;;;;5065839;28;20108;-74
2023/10/06 05:18:15;;;;;;;0.85;0.75;;;5.20;1.00;;;;;;5067925;28;20363;-74
2023/10/06 05:20:42;;;;;;;0.10;0.10;;;5.20;1.00;;;;;;5064488;28;20041;-74
2023/10/06 05:23:14;;;;;;;0.20;0.20;;;5.20;1.00;;;;;;5070485;28;20389;-74
2023/10/06 05:25:46;;;;;;;1.45;1.20;;;5.20;1.00;;;;;;5071835;28;20025;-76
2023/10/06 05:28:16;;;;;;;0.82;0.73;;;5.20;1.00;;;;;;5067339;28;20025;-74
2023/10/06 05:30:44;;;;;;;0.85;0.75;;;5.20;1.00;;;;;;5069962;28;20033;-75
2023/10/06 05:33:11;;;;;;;0.20;0.20;;;5.30;1.00;;;;;;5069482;28;20049;-73
2023/10/06 05:35:38;;;;;;;0.20;0.20;;;5.30;1.00;;;;;;5073726;28;20040;-74
2023/10/06 05:38:12;;;;;;;0.65;0.65;;;5.20;1.00;;;;;;5069962;28;20062;-78
2023/10/06 05:40:40;;;;;;;0.55;0.55;;;5.20;1.00;;;;;;5069450;28;20397;-73
2023/10/06 05:43:11;;;;;;;0.80;0.80;;;5.30;1.00;;;;;;5070473;28;20038;-74
2023/10/06 05:45:39;;;;;;;;;;;5.30;1.00;;;;;;5070817;28;20032;-75
2023/10/06 05:48:09;;;;;;;0.50;0.50;;;5.30;1.00;;;;;;5068774;28;20110;-76
2023/10/06 05:50:36;;;;;;;0.35;0.35;;;5.40;1.00;;;;;;5072015;28;20020;-74
2023/10/06 05:53:12;;;;;;;4.03;1.30;;;5.30;1.00;;;;;;5066596;28;20385;-74
2023/10/06 05:55:42;;;;;;;0.63;0.57;;;5.20;1.00;;;;;;5070865;28;20036;-74
2023/10/06 05:58:14;;;;;;;0.30;0.30;;;5.10;1.00;;;;;;5064513;28;20040;-83
2023/10/06 06:01:05;;;;;;;0.63;0.63;;;5.10;1.00;;;;;;5068977;28;20059;-74
2023/10/06 06:03:31;;;;;;;;;;;5.10;1.00;;;;;;5069071;28;20033;-73
2023/10/06 06:06:02;;;;;;;0.85;0.80;;;5.30;1.00;;;;;;5071330;28;19913;-75
2023/10/06 06:08:31;;;;;;;0.50;0.50;;;5.40;1.00;;;;;;5067910;28;20163;-73
2023/10/06 06:10:59;;;;;;;0.60;0.60;;;5.40;1.00;;;;;;5060807;28;20326;-80
2023/10/06 06:13:26;;;;;;;1.80;1.15;;;5.50;1.00;;;;;;5059785;28;20036;-77
2023/10/06 06:15:54;;;;;;;2.25;0.88;;;5.60;1.00;;;;;;5069407;28;20033;-74
2023/10/06 06:18:20;;;;;;;0.38;0.38;;;5.60;1.00;;;;;;5069550;28;20052;-74
2023/10/06 06:20:46;;;;;;;6.65;0.75;;;5.80;1.00;;;;;;5069693;28;20029;-74
2023/10/06 06:23:13;;;;;;;0.35;0.35;;;5.90;1.00;;;;;;5065979;28;20032;-77
2023/10/06 06:25:40;;;;;;;0.85;0.65;;;6.00;1.00;;;;;;5068653;28;20036;-75
2023/10/06 06:28:08;;;;;;;0.28;0.28;;;6.20;1.00;;;;;;5065794;28;20025;-74
2023/10/06 06:30:37;;;;;;;1.05;0.95;;;6.20;1.00;;;;;;5047287;28;20401;-75
2023/10/06 06:33:06;;;;;;;0.75;0.55;;;6.30;1.00;;;;;;5064109;28;20045;-74
2023/10/06 06:35:33;;;;;;;0.30;0.30;;;6.30;1.00;;;;;;5063718;28;20047;-75
2023/10/06 06:38:01;;;;;;;1.20;1.10;;;6.50;1.00;;;;;;5065895;28;20033;-75
2023/10/06 06:40:31;;;;;;;0.70;0.70;;;6.50;1.00;;;;;;5069241;28;20143;-74
2023/10/06 06:42:59;;;;;;;1.98;1.52;;;6.60;1.00;;;;;;5068538;28;20043;-74
2023/10/06 06:45:28;;;;;;;1.38;1.27;;;6.80;1.00;;;;;;5067178;28;20047;-75
2023/10/06 06:47:55;;;;;;;0.77;0.77;;;7.00;1.00;;;;;;5064638;28;20039;-77
2023/10/06 06:50:22;;;;;;;0.32;0.32;;;7.10;1.00;;;;;;5068731;28;20033;-75
2023/10/06 06:52:51;;;;;;;2.75;1.35;;;7.30;1.00;;;;;;5065249;28;20040;-75
2023/10/06 06:55:18;;;;;;;1.80;1.70;;;7.40;1.00;;;;;;5069777;28;20498;-74
2023/10/06 06:57:45;;;;;;;0.17;0.17;;;7.60;1.00;;;;;;5070006;28;20024;-75
2023/10/06 07:00:16;;;;;;;1.30;0.80;;;7.80;1.00;;;;;;5070041;28;20052;-85
2023/10/06 07:02:46;;;;;;;9.38;0.88;;;7.90;1.00;;;;;;5066757;28;20036;-75
2023/10/06 07:05:13;;;;;;;0.68;0.68;;;8.10;1.00;;;;;;5068762;28;20067;-83
2023/10/06 07:07:42;;;;;;;1.40;0.57;;;8.30;1.00;;;;;;5066280;28;20031;-75
2023/10/06 07:10:19;;;;;;;0.80;0.80;;;8.50;1.00;;;;;;5084822;28;20041;-74
2023/10/06 07:12:50;;;;;;;0.30;0.30;;;8.70;1.00;;;;;;5068802;28;20040;-75
2023/10/06 07:15:21;;;;;;;0.55;0.50;;;8.90;99.90;;;;;;5066519;28;20036;-75
2023/10/06 07:17:51;;;;;;;0.40;0.40;;;9.10;1.00;;;;;;5072378;28;20202;-75
2023/10/06 07:20:19;;;;;;;1.20;1.10;;;9.30;99.90;;;;;;5067201;28;20036;-75
2023/10/06 07:22:52;;;;;;;1.55;1.45;;;9.50;1.00;;;;;;5067253;28;20048;-76
2023/10/06 07:25:19;;;;;;;1.05;0.75;;;9.80;1.00;;;;;;5077855;28;20402;-75
2023/10/06 07:27:48;;;;;;;2.00;1.83;;;10.00;99.90;;;;;;5067467;28;20028;-75
2023/10/06 07:30:15;;;;;;;0.90;0.75;;;10.20;99.90;;;;;;5068172;28;20044;-76
2023/10/06 07:32:43;;;;;;;1.70;1.27;;;10.40;99.90;;;;;;5071299;28;20040;-76
2023/10/06 07:35:15;;;;;;;0.75;0.75;;;10.60;99.90;;;;;;5066540;28;20032;-76
2023/10/06 07:37:43;;;;;;;0.45;0.45;;;10.90;99.90;;;;;;5065788;28;20028;-76
2023/10/06 07:40:14;;;;;;;0.82;0.40;;;11.10;99.90;;;;;;5071483;28;20032;-76
2023/10/06 07:42:49;;;;;;;0.40;0.40;;;11.30;99.90;;;;;;5065342;28;20043;-76
2023/10/06 07:45:17;;;;;;;1.10;0.85;;;11.40;99.90;;;;;;5068583;28;20032;-77
2023/10/06 07:47:44;;;;;;;0.55;0.55;;;11.40;99.90;;;;;;5065540;28;20049;-76
2023/10/06 07:50:13;;;;;;;0.65;0.65;;;11.50;84.40;;;;;;5067406;28;20028;-77
2023/10/06 07:52:41;;;;;;;1.00;0.43;;;11.60;42.20;;;;;;5064658;28;20382;-76
2023/10/06 07:55:11;;;;;;;0.73;0.73;;;11.70;26.10;;;;;;5066899;28;20020;-74
2023/10/06 07:57:42;;;;;;;0.47;0.35;;;12.00;29.10;;;;;;5064872;28;20048;-75
2023/10/06 08:00:11;;;;;;;1.67;0.70;;;12.30;1.00;;;;;;5068027;28;20053;-77
2023/10/06 08:02:40;;;;;;;0.95;0.65;;;12.80;1.00;;;;;;5063343;28;20063;-75
2023/10/06 08:05:13;;;;;;;0.20;0.20;;;13.00;1.00;;;;;;5069229;28;20044;-75
2023/10/06 08:07:40;;;;;;;0.57;0.57;;;12.90;1.00;;;;;;5068796;28;20040;-75
2023/10/06 08:10:11;;;;;;;1.58;1.48;;;12.80;1.00;;;;;;5069899;28;20035;-75
2023/10/06 08:12:50;;;;;;;0.73;0.60;;;13.40;1.00;;;;;;5063246;28;20053;-76
2023/10/06 08:15:18;;;;;;;1.63;0.57;;;13.90;99.90;;;;;;5066960;28;20367;-76
2023/10/06 08:17:45;;;;;;;2.05;1.58;;;13.80;99.90;;;;;;5068279;28;20032;-76
2023/10/06 08:20:12;;;;;;;1.35;1.25;;;13.70;99.90;;;;;;5066894;28;20037;-75
2023/10/06 08:22:39;;;;;;;1.92;1.63;;;13.80;99.90;;;;;;5068124;28;20040;-75
2023/10/06 08:25:05;;;;;;;1.45;0.75;;;13.90;99.90;;;;;;5067362;28;20496;-75
2023/10/06 08:27:33;;;;;;;1.95;0.88;;;14.00;99.90;;;;;;5064771;28;20466;-75
2023/10/06 08:29:59;;;;;;;1.23;1.13;;;14.30;99.90;;;;;;5068265;28;20036;-76
2023/10/06 08:32:25;;;;;;;3.97;2.22;;;14.30;99.90;;;;;;5067630;28;20033;-78
2023/10/06 08:34:53;;;;;;;2.55;2.08;;;14.40;99.90;;;;;;5064834;28;20410;-75
2023/10/06 08:37:19;;;;;;;2.67;2.47;;;14.60;99.90;;;;;;5064064;28;20390;-75
2023/10/06 08:39:46;;;;;;;3.67;1.98;;;14.70;99.90;;;;;;5068874;28;20025;-76
2023/10/06 08:42:17;;;;;;;4.05;1.88;;;14.40;99.90;;;;;;5068462;28;20563;-75
2023/10/06 08:44:45;;;;;;;1.30;0.90;;;14.60;99.90;;;;;;5067542;28;20383;-75
2023/10/06 08:47:14;;;;;;;3.42;1.92;;;14.70;99.90;;;;;;5066189;28;20032;-75
2023/10/06 08:49:41;;;;;;;3.75;1.98;;;15.10;99.90;;;;;;5068078;28;20051;-75
2023/10/06 08:52:09;;;;;;;6.95;5.25;;;15.20;99.90;;;;;;5062422;28;20037;-75
2023/10/06 08:54:36;;;;;;;4.13;2.45;;;15.00;99.90;;;;;;5064663;28;20029;-75
2023/10/06 08:57:03;;;;;;;6.85;2.50;;;14.90;99.90;;;;;;5070506;28;20029;-76
2023/10/06 08:59:33;;;;;;;1.83;1.17;;;14.90;99.90;;;;;;5063816;28;20052;-75
2023/10/06 09:02:00;;;;;;;;;;;15.30;99.90;;;;;;5058550;28;20036;-75
2023/10/06 09:04:37;;;;;;;0.32;0.32;;;15.30;99.90;;;;;;5066689;28;19935;-75
2023/10/06 09:07:08;;;;;;;15.40;1.15;;;15.00;99.90;;;;;;5062151;28;20056;-75
2023/10/06 09:09:36;;;;;;;1.00;0.82;;;15.10;99.90;;;;;;5059840;28;20036;-75
2023/10/06 09:12:03;;;;;;;2.72;1.35;;;15.30;99.90;;;;;;5063569;28;20033;-75
2023/10/06 09:14:30;;;;;;;2.08;1.10;;;15.30;99.90;;;;;;5066214;28;20362;-76
2023/10/06 09:17:01;;;;;;;3.40;0.73;;;15.50;99.90;;;;;;5060580;28;20029;-76
2023/10/06 09:19:46;;;;;;;;;;;15.50;99.90;;;;;;5066496;28;20036;-75
2023/10/06 09:22:13;;;;;;;0.52;0.52;;;16.60;99.90;;;;;;5065314;28;19912;-76
2023/10/06 09:24:40;;;;;;;1.15;0.95;;;17.20;38.60;;;;;;5063157;28;20493;-76
2023/10/06 09:27:19;;;;;;;11.60;1.55;;;17.70;1.00;;;;;;5066360;28;20040;-75
2023/10/06 09:29:46;;;;;;;3.13;1.38;;;18.20;1.00;;;;;;5066287;28;20040;-75
2023/10/06 09:32:22;;;;;;;0.68;0.60;;;18.40;1.00;;;;;;5068736;28;20035;-75
2023/10/06 09:34:53;;;;;;;0.80;0.80;;;18.50;1.00;;;;;;5067548;28;20045;-75
2023/10/06 09:37:20;;;;;;;1.17;0.95;;;18.30;1.00;;;;;;5067988;28;20036;-84
2023/10/06 09:40:15;;;;;;;2.88;0.80;;;18.10;1.00;;;;;;5062674;28;20049;-75
2023/10/06 09:42:54;;;;;;;0.90;0.35;;;17.60;1.00;;;;;;5065568;28;20037;-75
2023/10/06 09:45:21;;;;;;;2.17;0.55;;;17.30;1.00;;;;;;5064045;28;20047;-84
2023/10/06 09:47:56;;;;;;;0.77;0.77;;;17.10;1.00;;;;;;5069570;28;20032;-75
2023/10/06 09:50:23;;;;;;;0.20;0.20;;;16.90;1.00;;;;;;5068927;28;20468;-75
2023/10/06 09:52:50;;;;;;;0.93;0.90;;;16.90;1.00;;;;;;5067620;28;20032;-75
2023/10/06 09:55:19;;;;;;;2.95;1.23;;;16.50;1.00;;;;;;5068427;28;20473;-75
2023/10/06 09:57:47;;;;;;;0.20;0.20;;;16.40;11.40;;;;;;5068268;28;20100;-75
2023/10/06 10:00:18;;;;;;;0.35;0.35;;;16.70;1.00;;;;;;5066469;28;20048;-75
2023/10/06 10:02:46;;;;;;;0.98;0.85;;;16.80;1.00;;;;;;5066094;28;20044;-75
2023/10/06 10:05:18;;;;;;;0.90;0.75;;;16.80;1.00;;;;;;5067633;28;20032;-75
2023/10/06 10:07:48;;;;;;;0.50;0.50;;;16.70;1.00;;;;;;5070391;28;20039;-75
2023/10/06 10:10:22;;;;;;;0.95;0.93;;;16.70;1.00;;;;;;5069692;28;20032;-75
2023/10/06 10:13:13;;;;;;;0.65;0.63;;;16.70;1.00;;;;;;5069344;28;20397;-75
2023/10/06 10:16:11;;;;;;;1.05;0.95;;;16.70;1.00;;;;;;5066490;28;20037;-75
2023/10/06 10:18:39;;;;;;;0.65;0.32;;;16.90;1.00;;;;;;5069441;28;20052;-76
2023/10/06 10:21:11;;;;;;;0.65;0.65;;;16.90;1.00;;;;;;5072455;28;20037;-75
2023/10/06 10:23:41;;;;;;;1.30;1.17;;;16.90;1.00;;;;;;5066282;28;20044;-73
2023/10/06 10:26:26;;;;;;;4.70;0.97;;;17.00;1.00;;;;;;5069872;28;20045;-72
2023/10/06 10:29:07;;;;;;;1.08;1.05;;;16.90;1.00;;;;;;5067567;28;20040;-73
2023/10/06 10:31:37;;;;;;;1.35;1.25;;;16.80;1.00;;;;;;5068363;28;20036;-77
2023/10/06 10:34:03;;;;;;;1.67;1.15;;;16.80;1.00;;;;;;5069132;28;20363;-73
2023/10/06 10:36:31;;;;;;;2.20;0.95;;;16.90;1.00;;;;;;5084569;28;20028;-73
2023/10/06 10:39:01;;;;;;;0.50;0.20;;;16.90;1.00;;;;;;5068766;28;20332;-74
2023/10/06 10:41:33;;;;;;;3.97;1.40;;;17.00;1.00;;;;;;5065753;28;20055;-73
2023/10/06 10:44:03;;;;;;;0.90;0.80;;;16.90;1.00;;;;;;5068682;28;20036;-74
2023/10/06 10:46:50;;;;;;;1.73;1.02;;;16.90;1.00;;;;;;5071042;28;20029;-73
2023/10/06 10:49:22;;;;;;;1.05;0.95;;;17.10;1.00;;;;;;5070881;28;20478;-73
2023/10/06 10:51:55;;;;;;;1.80;0.95;;;17.20;1.00;;;;;;5044680;28;20487;-73
2023/10/06 10:54:22;;;;;;;1.00;0.47;;;17.50;1.00;;;;;;5019612;28;20056;-74
2023/10/06 10:56:51;;;;;;;0.60;0.60;;;17.50;1.00;;;;;;5028065;28;20525;-74
2023/10/06 10:59:20;;;;;;;0.63;0.52;;;17.50;1.00;;;;;;5030600;28;20054;-75
2023/10/06 11:01:53;;;;;;;1.48;1.35;;;17.60;1.00;;;;;;5025419;28;20041;-74
2023/10/06 11:04:30;;;;;;;0.75;0.75;;;17.70;1.00;;;;;;5030816;28;20757;-74
2023/10/06 11:07:11;;;;;;;1.17;0.82;;;17.70;1.00;;;;;;5030976;28;20368;-74
2023/10/06 11:12:24;;;;;;;2.05;1.13;;;17.90;99.90;;;;;;5027876;28;20052;-75
2023/10/06 11:14:55;;;;;;;1.05;0.88;;;18.00;99.90;;;;;;5030508;28;20034;-75
2023/10/06 11:17:24;;;;;;;0.73;0.55;;;17.70;99.90;;;;;;5030905;28;20037;-74
2023/10/06 11:20:00;;;;;;;1.48;0.82;;;17.80;99.90;;;;;;5029762;28;20042;-74
2023/10/06 11:22:28;;;;;;;5.28;0.40;;;17.90;99.90;;;;;;5030310;28;20037;-74
2023/10/06 11:24:57;;;;;;;0.60;0.55;;;18.10;99.90;;;;;;5021764;28;20041;-74
2023/10/06 11:27:24;;;;;;;1.05;0.57;;;18.20;99.90;;;;;;5031657;28;20477;-74
2023/10/06 11:29:52;;;;;;;6.32;1.35;;;18.30;99.90;;;;;;5027459;28;20042;-75
2023/10/06 11:32:21;;;;;;;5.22;1.40;;;18.20;99.90;;;;;;5029556;28;20037;-74
2023/10/06 11:34:51;;;;;;;4.40;1.50;;;18.20;99.90;;;;;;5029093;28;20060;-75
2023/10/06 11:37:18;;;;;;;1.40;0.35;;;18.10;99.90;;;;;;5031635;28;20210;-74
2023/10/06 11:39:45;;;;;;;0.22;0.22;;;18.10;99.90;;;;;;5028376;28;20636;-75
2023/10/06 11:42:24;;;;;;;0.38;0.38;;;18.30;99.90;;;;;;5029219;28;20041;-76
2023/10/06 11:44:54;;;;;;;0.80;0.80;;;18.50;99.90;;;;;;5043810;28;20038;-74
2023/10/06 11:47:25;;;;;;;1.08;0.82;;;18.60;99.90;;;;;;5028865;28;20030;-75
2023/10/06 11:49:55;;;;;;;1.65;1.25;;;18.70;99.90;;;;;;5028539;28;20025;-74
2023/10/06 11:52:21;;;;;;;0.97;0.97;;;18.70;99.90;;;;;;5028507;28;20484;-74
2023/10/06 11:54:48;;;;;;;0.82;0.80;;;18.60;99.90;;;;;;5030401;28;20378;-74
2023/10/06 11:57:14;;;;;;;0.30;0.30;;;18.70;99.90;;;;;;5043626;28;20042;-75
2023/10/06 11:59:50;;;;;;;1.10;1.00;;;18.80;99.90;;;;;;5030292;28;20129;-74
2023/10/06 12:02:17;;;;;;;0.70;0.70;;;18.90;99.90;;;;;;5029410;28;20131;-74
2023/10/06 12:04:44;;;;;;;1.23;1.10;;;18.90;99.90;;;;;;5029836;28;20037;-74
2023/10/06 12:07:25;;;;;;;0.13;0.13;;;18.90;99.90;;;;;;5030727;28;20029;-74
2023/10/06 12:10:03;;;;;;;0.95;0.77;;;19.00;99.90;;;;;;5030875;28;20029;-74
2023/10/06 12:12:29;;;;;;;1.13;0.32;;;18.90;99.90;;;;;;5026729;28;20096;-76
2023/10/06 12:14:56;;;;;;;1.17;0.63;;;18.90;99.90;;;;;;5029339;28;20041;-75
2023/10/06 12:17:25;;;;;;;1.00;0.88;;;19.00;99.90;;;;;;5027650;28;20026;-74
2023/10/06 12:19:52;;;;;;;3.10;0.85;;;18.90;99.90;;;;;;5029736;28;20034;-74
2023/10/06 12:22:20;;;;;;;0.30;0.30;;;18.90;99.90;;;;;;5025776;28;20048;-74
2023/10/06 12:24:46;;;;;;;0.10;0.10;;;19.00;99.90;;;;;;5028894;28;20048;-75
2023/10/06 12:27:17;;;;;;;0.60;0.60;;;19.20;99.90;;;;;;5029834;28;20093;-75
2023/10/06 12:29:44;;;;;;;0.63;0.63;;;19.20;99.90;;;;;;5025736;28;20033;-74
2023/10/06 12:32:10;;;;;;;0.30;0.30;;;19.00;99.90;;;;;;5027763;28;20025;-75
2023/10/06 12:34:37;;;;;;;0.45;0.45;;;19.10;99.90;;;;;;5027748;28;20498;-75
2023/10/06 12:37:03;;;;;;;1.35;0.88;;;19.10;99.90;;;;;;5029280;28;20029;-75
2023/10/06 12:39:35;;;;;;;0.57;0.45;;;19.10;99.90;;;;;;5030247;28;20033;-75
2023/10/06 12:42:03;;;;;;;1.02;0.63;;;19.20;99.90;;;;;;5027841;28;20040;-75
2023/10/06 12:44:30;;;;;;;2.63;0.73;;;19.30;99.90;;;;;;5028076;28;20033;-75
2023/10/06 12:47:03;;;;;;;0.70;0.55;;;19.20;99.90;;;;;;5028682;28;20034;-74
2023/10/06 12:49:30;;;;;;;0.82;0.82;;;19.20;97.90;;;;;;5027493;28;20036;-74
2023/10/06 12:51:57;;;;;;;0.57;0.57;;;19.20;99.90;;;;;;5027952;28;20536;-74
2023/10/06 12:54:29;;;;;;;0.82;0.65;;;19.30;99.90;;;;;;5029284;28;20033;-74
2023/10/06 12:56:55;;;;;;;0.20;0.20;;;19.30;99.90;;;;;;5026434;28;20037;-74
2023/10/06 12:59:22;;;;;;;0.32;0.22;;;19.20;99.90;;;;;;5029639;28;20056;-74
2023/10/06 13:01:49;;;;;;;0.95;0.95;;;19.20;99.90;;;;;;5026212;28;20034;-74
2023/10/06 13:04:15;;;;;;;0.77;0.70;;;19.30;99.90;;;;;;5029468;28;20055;-74
2023/10/06 13:06:41;;;;;;;5.47;1.40;;;19.30;99.90;;;;;;5027493;28;20038;-73
2023/10/06 13:09:09;;;;;;;1.23;0.50;;;19.20;99.90;;;;;;5027581;28;20033;-75
2023/10/06 13:11:35;;;;;;;0.38;0.38;;;19.20;99.90;;;;;;5028059;28;20029;-77
2023/10/06 13:14:03;;;;;;;0.60;0.60;;;19.10;99.90;;;;;;5027775;28;20045;-74
2023/10/06 13:16:30;;;;;;;0.40;0.40;;;19.00;99.90;;;;;;5028140;28;20048;-78
2023/10/06 13:18:56;;;;;;;0.82;0.82;;;19.00;99.90;;;;;;5027370;28;20042;-75
2023/10/06 13:21:23;;;;;;;1.45;1.27;;;19.00;99.90;;;;;;5025873;28;20033;-77
2023/10/06 13:23:49;;;;;;;0.22;0.22;;;19.10;99.90;;;;;;5027898;28;20044;-74
2023/10/06 13:26:18;;;;;;;0.75;0.75;;;19.10;99.90;;;;;;5027951;28;20390;-73
2023/10/06 13:28:47;;;;;;;0.52;0.52;;;19.20;99.90;;;;;;5025809;28;20045;-74